createdAt,value
2023-06-20T00:02:43.309Z,5.30
2023-06-20T00:05:28.801Z,6.32
2023-06-20T00:08:14.560Z,5.63
2023-06-20T00:10:59.818Z,6.03
2023-06-20T00:13:45.546Z,6.10
2023-06-20T00:16:30.999Z,5.93
2023-06-20T00:19:16.617Z,6.05
2023-06-20T00:22:04.192Z,6.03
2023-06-20T00:24:49.772Z,5.80
2023-06-20T00:27:35.423Z,6.10
2023-06-20T00:30:21.333Z,6.55
2023-06-20T00:33:06.483Z,5.63
2023-06-20T00:35:51.992Z,5.80
2023-06-20T00:38:37.724Z,5.78
2023-06-20T00:41:24.325Z,5.07
2023-06-20T00:44:09.752Z,5.32
2023-06-20T00:46:55.436Z,4.88
2023-06-20T00:49:41.941Z,5.15
2023-06-20T00:52:27.504Z,5.10
2023-06-20T00:55:13.949Z,5.25
2023-06-20T00:58:01.435Z,5.47
2023-06-20T01:00:47.441Z,4.40
2023-06-20T01:03:33.792Z,4.10
2023-06-20T01:06:28.279Z,4.60
2023-06-20T01:09:49.356Z,4.63
2023-06-20T01:12:51.986Z,4.60
2023-06-20T01:16:14.510Z,4.60
2023-06-20T01:19:35.533Z,4.38
2023-06-20T01:22:46.918Z,4.65
2023-06-20T01:26:01.620Z,4.85
2023-06-20T01:28:52.419Z,4.95
2023-06-20T01:31:40.902Z,3.67
2023-06-20T01:34:29.558Z,5.15
2023-06-20T01:37:18.332Z,3.95
2023-06-20T01:40:06.604Z,4.70
2023-06-20T01:42:59.054Z,4.60
2023-06-20T01:45:45.839Z,4.70
2023-06-20T01:48:34.888Z,4.80
2023-06-20T01:51:20.869Z,4.13
2023-06-20T01:54:07.436Z,5.78
2023-06-20T01:56:53.860Z,4.45
2023-06-20T01:59:41.021Z,4.25
2023-06-20T02:02:29.144Z,4.85
2023-06-20T02:05:16.752Z,4.35
2023-06-20T02:08:04.160Z,4.15
2023-06-20T02:10:50.750Z,4.45
2023-06-20T02:13:37.249Z,4.47
2023-06-20T02:16:24.013Z,4.68
2023-06-20T02:19:09.925Z,4.32
2023-06-20T02:21:58.081Z,4.50
2023-06-20T02:24:46.333Z,4.65
2023-06-20T02:27:32.174Z,4.90
2023-06-20T02:30:18.698Z,4.60
2023-06-20T02:33:06.968Z,4.30
2023-06-20T02:35:53.789Z,4.50
2023-06-20T02:38:39.396Z,5.30
2023-06-20T02:41:25.602Z,4.90
2023-06-20T02:44:11.317Z,4.55
2023-06-20T02:47:08.593Z,5.22
2023-06-20T02:50:17.280Z,5.60
2023-06-20T02:53:30.737Z,5.63
2023-06-20T02:56:17.105Z,5.43
2023-06-20T02:59:04.798Z,4.88
2023-06-20T03:01:55.052Z,4.63
2023-06-20T03:04:42.283Z,4.78
2023-06-20T03:07:34.950Z,4.78
2023-06-20T03:10:20.665Z,4.13
2023-06-20T03:13:06.941Z,4.32
2023-06-20T03:15:52.616Z,5.03
2023-06-20T03:18:38.563Z,4.18
2023-06-20T03:21:29.518Z,4.68
2023-06-20T03:24:15.703Z,4.93
2023-06-20T03:27:01.117Z,5.55
2023-06-20T03:29:46.804Z,3.97
2023-06-20T03:32:32.491Z,4.05
2023-06-20T03:35:18.156Z,4.32
2023-06-20T03:38:03.751Z,4.80
2023-06-20T03:40:51.107Z,4.38
2023-06-20T03:43:36.927Z,4.50
2023-06-20T03:46:22.412Z,4.70
2023-06-20T03:49:08.013Z,5.10
2023-06-20T03:51:53.632Z,5.13
2023-06-20T03:54:40.535Z,4.72
2023-06-20T03:57:26.333Z,5.80
2023-06-20T04:00:13.453Z,5.00
2023-06-20T04:02:59.375Z,4.97
2023-06-20T04:05:44.765Z,5.07
2023-06-20T04:08:30.696Z,4.47
2023-06-20T04:11:16.080Z,4.88
2023-06-20T04:14:01.657Z,5.35
2023-06-20T04:16:49.028Z,5.63
2023-06-20T04:19:35.021Z,5.32
2023-06-20T04:22:20.659Z,5.43
2023-06-20T04:25:06.660Z,5.32
2023-06-20T04:27:56.773Z,5.43
2023-06-20T04:30:42.079Z,5.82
2023-06-20T04:33:27.468Z,5.93
2023-06-20T04:36:16.112Z,5.10
2023-06-20T04:39:01.784Z,6.28
2023-06-20T04:41:46.862Z,5.55
2023-06-20T04:44:32.226Z,5.43
2023-06-20T04:47:17.890Z,6.30
2023-06-20T04:50:04.481Z,6.07
2023-06-20T04:52:50.337Z,6.72
2023-06-20T04:55:35.917Z,6.28
2023-06-20T04:58:21.951Z,6.55
2023-06-20T05:01:07.594Z,7.15
2023-06-20T05:03:53.162Z,7.93
2023-06-20T05:06:40.066Z,7.25
2023-06-20T05:09:25.518Z,8.00
2023-06-20T05:12:11.543Z,7.97
2023-06-20T05:14:57.122Z,7.97
2023-06-20T05:17:42.736Z,8.55
2023-06-20T05:20:29.346Z,9.45
2023-06-20T05:23:15.074Z,8.77
2023-06-20T05:26:02.591Z,10.10
2023-06-20T05:28:48.086Z,9.80
2023-06-20T05:31:34.058Z,10.13
2023-06-20T05:34:19.700Z,11.25
2023-06-20T05:37:05.372Z,10.90
2023-06-20T05:39:50.930Z,11.15
2023-06-20T05:42:36.499Z,10.50
2023-06-20T05:45:22.425Z,10.55
2023-06-20T05:48:10.087Z,11.43
2023-06-20T05:50:55.425Z,11.77
2023-06-20T05:53:44.653Z,11.63
2023-06-20T05:56:30.419Z,12.70
2023-06-20T05:59:15.890Z,13.60
2023-06-20T06:02:01.458Z,12.63
2023-06-20T06:04:47.521Z,13.68
2023-06-20T06:07:33.483Z,13.45
2023-06-20T06:10:19.882Z,14.02
2023-06-20T06:13:08.056Z,14.23
2023-06-20T06:16:00.775Z,13.77
2023-06-20T06:18:46.655Z,14.75
2023-06-20T06:21:34.754Z,15.23
2023-06-20T06:24:23.143Z,15.48
2023-06-20T06:27:08.911Z,16.63
2023-06-20T06:29:54.534Z,16.15
2023-06-20T06:32:40.167Z,16.38
2023-06-20T06:35:27.143Z,16.05
2023-06-20T06:38:12.952Z,15.38
2023-06-20T06:41:00.385Z,16.20
2023-06-20T06:43:47.528Z,17.73
2023-06-20T06:46:33.114Z,17.20
2023-06-20T06:49:18.983Z,16.40
2023-06-20T06:52:05.558Z,16.27
2023-06-20T06:55:35.863Z,15.73
2023-06-20T06:58:21.207Z,16.95
2023-06-20T07:01:06.676Z,16.17
2023-06-20T07:03:52.258Z,15.48
2023-06-20T07:06:38.024Z,14.45
2023-06-20T07:09:23.672Z,12.93
2023-06-20T07:16:33.278Z,7.85
2023-06-20T07:19:19.007Z,7.57
2023-06-20T07:22:04.933Z,7.65
2023-06-20T07:24:53.233Z,6.05
2023-06-20T07:27:40.972Z,6.22
2023-06-20T07:30:26.969Z,5.03
2023-06-20T07:33:13.065Z,4.35
2023-06-20T07:36:01.177Z,4.43
2023-06-20T07:38:46.420Z,4.07
2023-06-20T07:41:31.928Z,3.33
2023-06-20T07:44:17.325Z,3.30
2023-06-20T07:47:03.145Z,3.15
2023-06-20T07:49:48.763Z,3.10
2023-06-20T07:52:34.533Z,3.10
2023-06-20T07:55:28.868Z,2.92
2023-06-20T07:58:16.501Z,2.58
2023-06-20T08:01:01.974Z,2.45
2023-06-20T08:03:47.812Z,2.15
2023-06-20T08:06:33.898Z,1.90
2023-06-20T08:09:19.662Z,2.28
2023-06-20T08:12:05.983Z,1.85
2023-06-20T08:14:54.463Z,1.50
2023-06-20T08:17:40.053Z,1.80
2023-06-20T08:20:25.985Z,2.20
2023-06-20T08:23:11.377Z,1.92
2023-06-20T08:25:57.941Z,2.30
2023-06-20T08:28:43.837Z,2.25
2023-06-20T08:31:37.774Z,2.80
2023-06-20T08:34:23.478Z,3.50
2023-06-20T08:37:09.393Z,3.40
2023-06-20T08:39:55.062Z,4.20
2023-06-20T08:42:42.111Z,4.40
2023-06-20T08:45:28.637Z,5.35
2023-06-20T08:48:14.150Z,4.55
2023-06-20T08:50:59.599Z,5.00
2023-06-20T08:53:48.577Z,5.97
2023-06-20T08:56:37.455Z,5.72
2023-06-20T09:00:49.920Z,7.18
2023-06-20T09:03:36.405Z,8.15
2023-06-20T09:06:39.087Z,8.45
2023-06-20T09:09:24.837Z,8.55
2023-06-20T09:12:10.366Z,8.90
2023-06-20T09:14:55.650Z,9.27
2023-06-20T09:17:45.406Z,9.75
2023-06-20T09:20:32.488Z,11.05
2023-06-20T09:23:29.412Z,12.65
2023-06-20T09:26:17.485Z,12.68
2023-06-20T09:29:21.335Z,13.15
2023-06-20T09:32:22.176Z,13.20
2023-06-20T09:35:10.455Z,12.48
2023-06-20T09:37:55.595Z,12.63
2023-06-20T09:40:47.317Z,11.50
2023-06-20T09:43:33.246Z,11.45
2023-06-20T09:46:18.971Z,11.60
2023-06-20T09:49:06.215Z,11.55
2023-06-20T09:52:01.830Z,10.98
2023-06-20T09:54:56.519Z,11.20
2023-06-20T09:57:51.926Z,9.95
2023-06-20T10:00:38.606Z,10.60
2023-06-20T10:03:26.605Z,10.80
2023-06-20T10:06:12.757Z,10.70
2023-06-20T10:08:59.708Z,10.32
2023-06-20T10:11:45.432Z,10.50
2023-06-20T10:14:31.302Z,9.73
2023-06-20T10:17:16.697Z,9.40
2023-06-20T10:20:02.282Z,9.60
2023-06-20T10:22:50.449Z,8.55
2023-06-20T10:25:36.665Z,8.45
2023-06-20T10:28:23.930Z,7.47
2023-06-20T10:31:10.187Z,7.18
2023-06-20T10:33:59.058Z,6.80
2023-06-20T10:36:44.517Z,6.55
2023-06-20T10:39:32.006Z,6.05
2023-06-20T10:42:36.261Z,5.72
2023-06-20T10:45:27.381Z,5.97
2023-06-20T10:48:13.107Z,6.07
2023-06-20T10:51:01.830Z,4.75
2023-06-20T10:53:47.396Z,4.30
2023-06-20T10:56:35.866Z,3.75
2023-06-20T10:59:21.763Z,4.10
2023-06-20T11:02:07.505Z,4.30
2023-06-20T11:04:54.670Z,3.90
2023-06-20T11:07:53.136Z,3.35
2023-06-20T11:10:39.185Z,2.95
2023-06-20T11:13:24.997Z,2.92
2023-06-20T11:16:20.667Z,2.53
2023-06-20T11:19:12.808Z,2.45
2023-06-20T11:22:05.371Z,2.45
2023-06-20T11:24:51.358Z,2.40
2023-06-20T11:27:37.376Z,3.08
2023-06-20T11:30:30.352Z,2.83
2023-06-20T11:33:17.460Z,2.63
2023-06-20T11:36:03.351Z,2.60
2023-06-20T11:38:50.168Z,2.45
2023-06-20T11:41:36.721Z,2.38
2023-06-20T11:44:24.408Z,2.03
2023-06-20T11:47:11.074Z,2.30
2023-06-20T11:49:58.077Z,2.60
2023-06-20T11:52:43.949Z,2.10
2023-06-20T11:55:48.781Z,2.60
2023-06-20T11:58:44.893Z,2.10
2023-06-20T12:01:33.695Z,2.20
2023-06-20T12:04:23.328Z,2.33
2023-06-20T12:07:09.280Z,2.10
2023-06-20T12:09:54.854Z,1.90
2023-06-20T12:12:43.408Z,2.13
2023-06-20T12:15:28.502Z,2.22
2023-06-20T12:18:14.120Z,1.90
2023-06-20T12:21:04.210Z,1.90
2023-06-20T12:23:50.225Z,1.70
2023-06-20T12:26:36.118Z,1.50
2023-06-20T12:29:21.860Z,1.65
2023-06-20T12:32:07.616Z,1.88
2023-06-20T12:34:53.116Z,1.40
2023-06-20T12:37:41.149Z,1.58
2023-06-20T12:40:26.745Z,1.90
2023-06-20T12:43:12.633Z,1.42
2023-06-20T12:46:01.939Z,1.65
2023-06-20T12:48:47.507Z,1.42
2023-06-20T12:51:35.943Z,1.30
2023-06-20T12:54:21.209Z,1.50
2023-06-20T12:57:06.820Z,1.58
2023-06-20T12:59:52.890Z,1.70
2023-06-20T13:02:40.022Z,1.30
2023-06-20T13:05:25.438Z,1.73
2023-06-20T13:08:11.462Z,1.10
2023-06-20T13:10:58.988Z,1.42
2023-06-20T13:13:46.551Z,1.17
2023-06-20T13:16:33.246Z,1.30
2023-06-20T13:19:22.155Z,1.42
2023-06-20T13:22:07.809Z,1.00
2023-06-20T13:24:53.691Z,1.10
2023-06-20T13:27:39.627Z,1.40
2023-06-20T13:30:26.163Z,1.08
2023-06-20T13:33:12.011Z,1.27
2023-06-20T13:35:57.504Z,1.27
2023-06-20T13:38:44.420Z,1.30
2023-06-20T13:41:30.223Z,1.52
2023-06-20T13:44:15.957Z,1.60
2023-06-20T13:47:02.095Z,1.30
2023-06-20T13:49:48.095Z,1.27
2023-06-20T13:52:34.562Z,1.92
2023-06-20T13:55:21.183Z,1.50
2023-06-20T13:58:06.925Z,2.47
2023-06-20T14:00:52.438Z,2.03
2023-06-20T14:03:38.055Z,2.78
2023-06-20T14:06:23.501Z,2.20
2023-06-20T14:09:09.194Z,2.33
2023-06-20T14:11:54.691Z,2.53
2023-06-20T14:14:40.200Z,2.47
2023-06-20T14:17:26.822Z,3.45
2023-06-20T14:20:12.514Z,2.30
2023-06-20T14:22:58.520Z,2.28
2023-06-20T14:25:44.323Z,2.30
2023-06-20T14:28:31.012Z,2.15
2023-06-20T14:31:16.682Z,2.67
2023-06-20T14:34:02.353Z,2.75
2023-06-20T14:36:47.866Z,2.78
2023-06-20T14:39:33.407Z,2.90
2023-06-20T14:42:20.644Z,3.15
2023-06-20T14:45:07.580Z,3.35
2023-06-20T14:47:54.052Z,3.40
2023-06-20T14:50:48.193Z,5.60
2023-06-20T14:53:34.843Z,3.30
2023-06-20T14:56:20.528Z,3.13
2023-06-20T14:59:06.096Z,4.07
2023-06-20T15:01:52.111Z,3.13
2023-06-20T15:04:37.781Z,4.00
2023-06-20T15:07:23.554Z,4.10
2023-06-20T15:10:10.293Z,3.92
2023-06-20T15:12:56.159Z,3.60
2023-06-20T15:15:41.797Z,4.32
2023-06-20T15:18:28.143Z,4.15
2023-06-20T15:21:14.768Z,3.80
2023-06-20T15:24:00.102Z,3.70
2023-06-20T15:26:45.641Z,4.13
2023-06-20T15:29:32.421Z,4.57
2023-06-20T15:32:18.207Z,4.13
2023-06-20T15:35:04.238Z,4.55
2023-06-20T15:37:49.770Z,4.20
2023-06-20T15:40:35.404Z,5.03
2023-06-20T15:43:23.336Z,3.95
2023-06-20T15:46:09.987Z,4.40
2023-06-20T15:48:57.335Z,4.63
2023-06-20T15:51:42.939Z,4.25
2023-06-20T15:54:29.498Z,4.45
2023-06-20T15:57:15.561Z,3.88
2023-06-20T16:00:01.370Z,3.50
2023-06-20T16:02:48.262Z,3.72
2023-06-20T16:05:33.672Z,2.78
2023-06-20T16:08:19.186Z,3.10
2023-06-20T16:11:04.832Z,2.83
2023-06-20T16:13:50.280Z,2.75
2023-06-20T16:16:35.865Z,2.03
2023-06-20T16:19:21.903Z,2.22
2023-06-20T16:22:08.975Z,2.03
2023-06-20T16:24:54.812Z,1.58
2023-06-20T16:27:40.400Z,1.40
2023-06-20T16:30:26.246Z,1.52
2023-06-20T16:33:12.191Z,1.38
2023-06-20T16:35:58.080Z,1.75
2023-06-20T16:38:43.574Z,1.58
2023-06-20T16:41:29.449Z,1.80
2023-06-20T16:44:15.045Z,1.88
2023-06-20T16:47:00.445Z,1.58
2023-06-20T16:49:45.975Z,1.35
2023-06-20T16:52:31.608Z,1.60
2023-06-20T16:55:18.486Z,1.35
2023-06-20T16:58:04.039Z,1.15
2023-06-20T17:00:49.596Z,1.80
2023-06-20T17:03:35.142Z,1.60
2023-06-20T17:06:20.632Z,1.50
2023-06-20T17:09:06.430Z,1.55
2023-06-20T17:11:52.233Z,1.88
2023-06-20T17:14:37.287Z,1.67
2023-06-20T17:17:23.375Z,1.38
2023-06-20T17:20:09.436Z,1.70
2023-06-20T17:22:54.984Z,1.20
2023-06-20T17:25:40.679Z,1.40
2023-06-20T17:28:26.602Z,1.20
2023-06-20T17:31:13.617Z,1.40
2023-06-20T17:33:59.363Z,1.60
2023-06-20T17:36:44.777Z,1.15
2023-06-20T17:39:30.284Z,1.70
2023-06-20T17:42:15.741Z,1.95
2023-06-20T17:45:02.045Z,1.30
2023-06-20T17:47:47.456Z,1.15
2023-06-20T17:50:33.086Z,1.17
2023-06-20T17:53:18.818Z,1.20
2023-06-20T17:56:05.085Z,1.40
2023-06-20T17:58:53.539Z,1.40
2023-06-20T18:01:38.932Z,1.30
2023-06-20T18:04:25.272Z,1.23
2023-06-20T18:07:10.763Z,1.30
2023-06-20T18:09:56.367Z,1.05
2023-06-20T18:12:41.914Z,1.40
2023-06-20T18:15:28.310Z,1.05
2023-06-20T18:18:13.765Z,1.02
2023-06-20T18:20:59.962Z,1.33
2023-06-20T18:23:45.673Z,1.20
2023-06-20T18:26:31.243Z,1.48
2023-06-20T18:29:16.830Z,1.27
2023-06-20T18:32:02.535Z,1.33
2023-06-20T18:34:48.450Z,1.50
2023-06-20T18:37:34.229Z,2.13
2023-06-20T18:40:20.109Z,2.03
2023-06-20T18:43:05.979Z,1.52
2023-06-20T18:45:51.494Z,1.60
2023-06-20T18:48:37.337Z,1.42
2023-06-20T18:51:23.184Z,1.30
2023-06-20T18:54:09.840Z,1.60
2023-06-20T18:56:55.388Z,1.45
2023-06-20T18:59:41.274Z,1.25
2023-06-20T19:02:26.476Z,1.50
2023-06-20T19:05:11.987Z,1.55
2023-06-20T19:07:58.197Z,1.63
2023-06-20T19:10:44.056Z,1.90
2023-06-20T19:13:29.924Z,1.88
2023-06-20T19:16:16.329Z,1.77
2023-06-20T19:19:01.935Z,1.55
2023-06-20T19:21:47.525Z,1.40
2023-06-20T19:24:33.479Z,1.50
2023-06-20T19:27:19.382Z,1.58
2023-06-20T19:30:05.292Z,1.90
2023-06-20T19:32:51.905Z,1.67
2023-06-20T19:35:37.728Z,1.60
2023-06-20T19:38:23.010Z,1.67
2023-06-20T19:41:09.763Z,1.48
2023-06-20T19:43:55.321Z,1.60
2023-06-20T19:46:40.876Z,1.80
2023-06-20T19:49:26.776Z,1.52
2023-06-20T19:52:14.733Z,2.13
2023-06-20T19:55:00.350Z,2.55
2023-06-20T19:57:49.411Z,3.13
2023-06-20T20:00:35.224Z,3.33
2023-06-20T20:03:20.717Z,3.78
2023-06-20T20:06:06.286Z,3.35
2023-06-20T20:08:52.120Z,3.53
2023-06-20T20:11:37.533Z,3.85
2023-06-20T20:14:22.978Z,4.28
2023-06-20T20:17:08.489Z,3.83
2023-06-20T20:19:54.530Z,3.67
2023-06-20T20:22:40.563Z,3.67
2023-06-20T20:25:26.186Z,3.97
2023-06-20T20:28:12.097Z,4.10
2023-06-20T20:30:57.929Z,4.00
2023-06-20T20:33:43.252Z,3.60
2023-06-20T20:36:28.744Z,3.53
2023-06-20T20:39:15.629Z,3.75
2023-06-20T20:42:01.524Z,3.95
2023-06-20T20:44:49.921Z,3.53
2023-06-20T20:47:35.318Z,3.72
2023-06-20T20:50:21.077Z,3.40
2023-06-20T20:53:06.669Z,3.33
2023-06-20T20:55:52.459Z,3.60
2023-06-20T20:58:37.926Z,4.00
2023-06-20T21:01:23.864Z,3.88
2023-06-20T21:04:09.910Z,3.50
2023-06-20T21:06:55.761Z,3.88
2023-06-20T21:09:41.683Z,4.35
2023-06-20T21:12:27.251Z,3.95
2023-06-20T21:15:13.627Z,3.85
2023-06-20T21:17:59.597Z,4.22
2023-06-20T21:20:44.978Z,3.50
2023-06-20T21:23:31.799Z,4.20
2023-06-20T21:26:17.591Z,4.05
2023-06-20T21:29:03.643Z,3.20
2023-06-20T21:31:49.079Z,4.00
2023-06-20T21:34:34.556Z,3.50
2023-06-20T21:37:20.088Z,3.80
2023-06-20T21:40:08.994Z,4.38
2023-06-20T21:42:55.793Z,3.60
2023-06-20T21:45:42.744Z,4.10
2023-06-20T21:48:29.070Z,3.72
2023-06-20T21:51:15.034Z,4.30
2023-06-20T21:54:00.595Z,4.53
2023-06-20T21:56:46.347Z,3.30
2023-06-20T21:59:35.762Z,3.60
2023-06-20T22:02:21.664Z,3.38
2023-06-20T22:05:07.347Z,3.42
2023-06-20T22:07:52.854Z,3.47
2023-06-20T22:10:51.583Z,3.78
2023-06-20T22:13:44.676Z,3.60
2023-06-20T22:16:29.898Z,3.53
2023-06-20T22:19:17.023Z,3.60
2023-06-20T22:22:02.790Z,3.20
2023-06-20T22:24:48.392Z,3.97
2023-06-20T22:27:34.424Z,3.25
2023-06-20T22:30:21.692Z,3.63
2023-06-20T22:33:10.568Z,3.20
2023-06-20T22:35:56.245Z,3.30
2023-06-20T22:38:41.664Z,4.03
2023-06-20T22:41:27.092Z,3.28
2023-06-20T22:44:12.580Z,3.67
2023-06-20T22:46:58.234Z,3.40
2023-06-20T22:49:43.858Z,3.03
2023-06-20T22:52:29.592Z,3.53
2023-06-20T22:55:17.246Z,3.28
2023-06-20T22:58:03.881Z,4.10
2023-06-20T23:00:49.403Z,2.72
2023-06-20T23:03:36.309Z,3.30
2023-06-20T23:06:21.941Z,3.10
2023-06-20T23:09:07.566Z,3.00
2023-06-20T23:11:53.221Z,2.95
2023-06-20T23:14:39.014Z,3.13
2023-06-20T23:17:24.524Z,2.60
2023-06-20T23:20:13.898Z,3.20
2023-06-20T23:22:59.320Z,3.20
2023-06-20T23:25:46.681Z,3.03
2023-06-20T23:28:32.045Z,4.05
2023-06-20T23:31:18.533Z,3.45
2023-06-20T23:34:04.360Z,2.95
2023-06-20T23:36:50.103Z,3.10
2023-06-20T23:39:35.961Z,3.08
2023-06-20T23:42:22.201Z,2.95
2023-06-20T23:45:08.604Z,2.72
2023-06-20T23:47:54.362Z,2.90
2023-06-20T23:50:40.436Z,3.20
2023-06-20T23:53:26.162Z,3.55
2023-06-20T23:56:12.301Z,3.28
2023-06-20T23:58:57.391Z,2.70
